createdAt,value
2023-03-23T15:58:31.994Z,2.90
2023-03-23T16:01:01.953Z,5.22
2023-03-23T16:03:35.854Z,7.28
2023-03-23T16:06:04.134Z,4.20
2023-03-23T16:08:32.094Z,10.48
2023-03-23T16:11:00.106Z,3.38
2023-03-23T16:13:29.425Z,4.10
2023-03-23T16:15:57.303Z,2.83
2023-03-23T16:18:25.196Z,4.28
2023-03-23T16:20:52.977Z,3.45
2023-03-23T16:23:21.059Z,4.07
2023-03-23T16:25:48.913Z,4.57
2023-03-23T16:28:17.182Z,4.45
2023-03-23T16:30:46.619Z,4.40
2023-03-23T16:33:14.803Z,4.00
2023-03-23T16:35:43.591Z,4.00
2023-03-23T16:38:14.294Z,4.43
2023-03-23T16:40:42.415Z,3.72
2023-03-23T16:43:10.886Z,4.82
2023-03-23T16:45:43.169Z,4.65
2023-03-23T16:48:13.907Z,5.10
2023-03-23T16:50:42.728Z,4.13
2023-03-23T16:53:11.398Z,4.10
2023-03-23T16:55:40.494Z,4.07
2023-03-23T17:02:20.615Z,5.80
2023-03-23T17:04:49.804Z,3.83
2023-03-23T17:07:17.867Z,3.72
2023-03-23T17:09:45.835Z,4.25
2023-03-23T17:12:13.601Z,5.18
2023-03-23T17:14:41.477Z,4.07
2023-03-23T17:17:12.673Z,3.95
2023-03-23T17:19:40.929Z,3.58
2023-03-23T17:22:10.116Z,4.28
2023-03-23T17:24:37.962Z,3.75
2023-03-23T17:27:06.056Z,3.58
2023-03-23T17:29:34.290Z,3.28
2023-03-23T17:32:02.193Z,3.75
2023-03-23T17:34:29.941Z,3.50
2023-03-23T17:36:57.752Z,3.33
2023-03-23T17:39:28.028Z,3.03
2023-03-23T17:44:23.635Z,3.67
2023-03-23T17:46:51.448Z,5.07
2023-03-23T17:49:20.179Z,3.85
2023-03-23T17:51:48.076Z,5.15
2023-03-23T17:54:15.903Z,5.97
2023-03-23T17:56:45.241Z,6.25
2023-03-23T17:59:13.325Z,3.83
2023-03-23T18:01:41.179Z,3.88
2023-03-23T18:04:08.992Z,5.32
2023-03-23T18:06:36.986Z,4.10
2023-03-23T18:09:05.605Z,5.57
2023-03-23T18:11:33.601Z,4.28
2023-03-23T18:14:02.859Z,2.85
2023-03-23T18:16:30.665Z,4.47
2023-03-23T18:18:58.588Z,2.47
2023-03-23T18:21:26.971Z,3.83
2023-03-23T18:23:59.586Z,3.53
2023-03-23T18:26:28.942Z,4.63
2023-03-23T18:28:56.976Z,4.25
2023-03-23T18:31:26.578Z,5.78
2023-03-23T18:33:55.336Z,4.20
2023-03-23T18:36:26.279Z,4.72
2023-03-23T18:38:57.277Z,4.90
2023-03-23T18:41:25.594Z,3.83
2023-03-23T18:43:55.127Z,3.90
2023-03-23T18:46:24.216Z,5.57
2023-03-23T18:48:53.824Z,5.38
2023-03-23T18:51:22.212Z,6.85
2023-03-23T18:53:50.081Z,6.53
2023-03-23T18:56:18.799Z,6.97
2023-03-23T18:58:46.955Z,7.10
2023-03-23T19:01:17.029Z,5.22
2023-03-23T19:03:46.007Z,5.13
2023-03-23T19:06:18.726Z,7.35
2023-03-23T19:08:47.043Z,8.75
2023-03-23T19:11:15.158Z,9.20
2023-03-23T19:13:53.864Z,9.00
2023-03-23T19:16:29.056Z,11.23
2023-03-23T19:18:56.957Z,9.65
2023-03-23T19:21:29.054Z,8.77
2023-03-23T19:23:59.291Z,7.72
2023-03-23T19:26:30.030Z,8.25
2023-03-23T19:31:29.885Z,10.35
2023-03-23T19:33:58.484Z,10.57
2023-03-23T19:36:28.014Z,9.20
2023-03-23T19:38:57.642Z,12.57
2023-03-23T19:41:27.586Z,10.98
2023-03-23T19:43:55.720Z,9.35
2023-03-23T19:46:24.019Z,8.77
2023-03-23T19:48:52.022Z,8.75
2023-03-23T19:51:22.490Z,7.15
2023-03-23T19:53:52.056Z,23.48
2023-03-23T19:56:22.435Z,7.85
2023-03-23T19:58:50.693Z,7.68
2023-03-23T20:01:19.196Z,11.10
2023-03-23T20:03:47.502Z,9.98
2023-03-23T20:06:16.549Z,11.95
2023-03-23T20:08:47.648Z,12.77
2023-03-23T20:11:19.035Z,11.02
2023-03-23T20:13:48.669Z,11.85
2023-03-23T20:16:17.812Z,11.15
2023-03-23T20:18:47.422Z,9.80
2023-03-23T20:21:20.185Z,10.75
2023-03-23T20:23:49.083Z,10.80
2023-03-23T20:26:21.070Z,8.38
2023-03-23T20:28:49.142Z,11.45
2023-03-23T20:31:24.183Z,10.90
2023-03-23T20:33:59.906Z,9.95
2023-03-23T20:36:34.963Z,12.07
2023-03-23T20:39:05.175Z,9.77
2023-03-23T20:41:36.614Z,8.98
2023-03-23T20:44:05.385Z,9.65
2023-03-23T20:46:33.499Z,7.32
2023-03-23T20:49:01.824Z,9.68
2023-03-23T20:51:31.281Z,11.15
2023-03-23T20:53:59.391Z,14.43
2023-03-23T20:56:28.657Z,14.07
2023-03-23T20:58:57.858Z,12.52
2023-03-23T21:01:26.227Z,15.45
2023-03-23T21:03:56.806Z,12.88
2023-03-23T21:06:28.344Z,12.55
2023-03-23T21:08:56.978Z,10.45
2023-03-23T21:11:26.670Z,8.05
2023-03-23T21:13:54.626Z,6.18
2023-03-23T21:16:24.700Z,5.03
2023-03-23T21:21:20.619Z,6.85
2023-03-23T21:23:52.375Z,6.05
2023-03-23T21:26:22.624Z,3.58
2023-03-23T21:28:53.877Z,4.47
2023-03-23T21:31:25.599Z,3.72
2023-03-23T21:33:53.437Z,3.88
2023-03-23T21:36:21.408Z,5.03
2023-03-23T21:38:50.067Z,4.97
2023-03-23T21:41:18.479Z,4.90
2023-03-23T21:43:46.776Z,6.75
2023-03-23T21:46:18.411Z,4.70
2023-03-23T21:48:50.845Z,3.88
2023-03-23T21:51:21.538Z,7.85
2023-03-23T21:53:50.111Z,3.20
2023-03-23T21:56:18.062Z,4.25
2023-03-23T21:58:46.284Z,5.82
2023-03-23T22:01:14.138Z,4.30
2023-03-23T22:03:42.415Z,11.80
2023-03-23T22:06:14.964Z,5.20
2023-03-23T22:08:44.696Z,3.67
2023-03-23T22:11:15.497Z,7.00
2023-03-23T22:13:43.750Z,5.43
2023-03-23T22:16:14.361Z,3.58
2023-03-23T22:18:43.367Z,4.18
2023-03-23T22:21:14.328Z,3.88
2023-03-23T22:23:42.751Z,4.60
2023-03-23T22:26:11.336Z,4.20
2023-03-23T22:28:40.068Z,3.63
2023-03-23T22:31:12.866Z,5.05
2023-03-23T22:33:41.163Z,3.95
2023-03-23T22:36:10.215Z,4.28
2023-03-23T22:38:41.639Z,5.18
2023-03-23T22:41:10.924Z,4.00
2023-03-23T22:43:39.141Z,5.82
2023-03-23T22:46:07.752Z,5.57
2023-03-23T22:48:35.723Z,3.33
2023-03-23T22:51:04.312Z,4.90
2023-03-23T22:53:32.831Z,7.95
2023-03-23T22:56:02.140Z,4.65
2023-03-23T22:58:30.262Z,4.95
2023-03-23T23:01:00.380Z,5.65
2023-03-23T23:03:29.511Z,5.32
2023-03-23T23:05:58.924Z,5.15
2023-03-23T23:08:29.408Z,3.97
2023-03-23T23:10:59.655Z,4.00
2023-03-23T23:16:00.748Z,6.05
2023-03-23T23:18:30.455Z,3.25
2023-03-23T23:21:00.544Z,5.93
2023-03-23T23:23:29.840Z,2.70
2023-03-23T23:25:57.860Z,2.83
2023-03-23T23:28:26.608Z,2.65
2023-03-23T23:30:56.500Z,3.30
2023-03-23T23:33:24.456Z,3.28
2023-03-23T23:35:54.280Z,3.15
2023-03-23T23:38:22.389Z,4.28
2023-03-23T23:40:50.505Z,4.97
2023-03-23T23:43:18.779Z,3.60
2023-03-23T23:45:46.794Z,6.53
2023-03-23T23:48:16.127Z,3.53
2023-03-23T23:50:44.330Z,3.85
2023-03-23T23:53:12.998Z,2.88
2023-03-23T23:55:41.085Z,2.88
2023-03-23T23:58:09.122Z,3.85
